Decoded Metar for KGLS (GALVESTON in TX, USA) (IATA:GLS) | Meteo·Mobile Aviation Weather
aviador You're here:

KGLS Decoded Metar

GALVESTON in TX, USA
Report Time2019-06-18 14:32:00
UTC Time2019-06-18 14:40:02
Flight Rules mvfr MVFR
Wind270° at 06 kt
W.Decomp.*RWY 32: 3.7 kt HW 4.7 kt LCW
RWY 18: 0.2 kt HW 6.0 kt RCW
Visibility9999 m
Phenomena:N/A
Clouds:Broken 018 Hf
Broken 027 Hf
Expected CloudBase > 800 ft AGL from Temp-Dew spread
Ceiling1,800 ft
Temp26°C (ISA +11)
Dew Point24°C (89% RH)
QNH1015 hPa
Density Alt1,621 ft
Elevation20 ft
Report Wrong Elevation
Raw Report
KGLS 181432Z 27006KT 10SM BKN018 BKN027 26/24 A2996 RMK AO2
T02560239=

Extra information for KGLS:More info

Metar Taf Metar & Taf Last 4 Metars F.Rules Stats Wind Profile Meteogram Temp Stats Airport Information Weather charts Add Link Nearby VenuesMetar ALERT Operation Metar Decoded Social comments

AIRNAV info for KGLS